createdAt,value
2022-11-10T00:00:26.566Z,2.30
2022-11-10T00:01:26.619Z,2.40
2022-11-10T00:02:26.545Z,2.10
2022-11-10T00:03:26.511Z,2.10
2022-11-10T00:04:26.531Z,2.50
2022-11-10T00:05:26.547Z,2.30
2022-11-10T00:06:26.565Z,2.10
2022-11-10T00:07:26.499Z,1.90
2022-11-10T00:08:26.508Z,2.10
2022-11-10T00:09:26.510Z,1.90
2022-11-10T00:10:26.479Z,2.00
2022-11-10T00:11:26.470Z,2.00
2022-11-10T00:12:26.392Z,1.80
2022-11-10T00:13:26.455Z,2.00
2022-11-10T00:14:26.393Z,1.90
2022-11-10T00:15:26.400Z,2.00
2022-11-10T00:16:26.417Z,2.10
2022-11-10T00:17:26.352Z,1.80
2022-11-10T00:18:26.298Z,1.70
2022-11-10T00:19:26.326Z,1.50
2022-11-10T00:20:26.289Z,1.70
2022-11-10T00:21:26.285Z,1.90
2022-11-10T00:22:26.361Z,1.90
2022-11-10T00:23:26.307Z,1.80
2022-11-10T00:24:26.230Z,1.70
2022-11-10T00:25:26.263Z,1.60
2022-11-10T00:26:26.221Z,1.50
2022-11-10T00:27:26.279Z,1.40
2022-11-10T00:28:26.205Z,1.60
2022-11-10T00:29:26.241Z,1.70
2022-11-10T00:30:26.179Z,1.40
2022-11-10T00:31:26.159Z,1.60
2022-11-10T00:32:26.178Z,1.60
2022-11-10T00:33:26.109Z,1.40
2022-11-10T00:34:26.090Z,1.70
2022-11-10T00:35:26.149Z,1.50
2022-11-10T00:36:26.071Z,1.40
2022-11-10T00:37:26.089Z,1.80
2022-11-10T00:38:26.060Z,1.30
2022-11-10T00:39:26.089Z,1.30
2022-11-10T00:40:26.075Z,1.20
2022-11-10T00:41:26.068Z,1.30
2022-11-10T00:42:26.047Z,1.30
2022-11-10T00:43:26.891Z,1.50
2022-11-10T00:44:26.002Z,1.40
2022-11-10T00:45:25.975Z,1.30
2022-11-10T00:46:26.009Z,1.10
2022-11-10T00:47:25.961Z,1.20
2022-11-10T00:48:25.964Z,1.20
2022-11-10T00:49:25.975Z,1.30
2022-11-10T00:50:25.888Z,1.20
2022-11-10T00:51:25.926Z,1.20
2022-11-10T00:52:25.947Z,1.30
2022-11-10T00:53:25.855Z,1.10
2022-11-10T00:54:25.859Z,1.00
2022-11-10T00:55:25.868Z,1.20
2022-11-10T00:56:25.901Z,1.00
2022-11-10T00:57:25.776Z,0.80
2022-11-10T00:58:25.844Z,1.20
2022-11-10T00:59:25.855Z,1.00
2022-11-10T01:00:25.803Z,0.90
2022-11-10T01:01:25.845Z,1.00
2022-11-10T01:02:25.767Z,1.00
2022-11-10T01:03:25.726Z,0.90
2022-11-10T01:04:25.695Z,0.80
2022-11-10T01:05:25.686Z,0.90
2022-11-10T01:06:25.677Z,0.70
2022-11-10T01:07:25.765Z,0.90
2022-11-10T01:08:25.680Z,0.90
2022-11-10T01:09:25.689Z,0.90
2022-11-10T01:10:25.633Z,0.70
2022-11-10T01:11:25.670Z,0.70
2022-11-10T01:12:25.578Z,0.60
2022-11-10T01:13:25.689Z,0.60
2022-11-10T01:14:25.563Z,0.50
2022-11-10T01:15:27.865Z,0.60
2022-11-10T01:16:25.606Z,0.70
2022-11-10T01:17:25.564Z,0.50
2022-11-10T01:18:25.568Z,0.60
2022-11-10T01:19:25.584Z,0.80
2022-11-10T01:20:25.535Z,0.60
2022-11-10T01:21:25.531Z,0.70
2022-11-10T01:22:25.518Z,0.40
2022-11-10T01:23:25.528Z,0.60
2022-11-10T01:24:25.401Z,0.60
2022-11-10T01:25:25.467Z,0.70
2022-11-10T01:26:25.401Z,0.50
2022-11-10T01:27:25.444Z,0.50
2022-11-10T01:28:25.445Z,0.40
2022-11-10T01:29:25.411Z,0.70
2022-11-10T01:30:25.413Z,0.50
2022-11-10T01:31:25.342Z,0.40
2022-11-10T01:32:25.296Z,0.50
2022-11-10T01:33:25.339Z,0.40
2022-11-10T01:34:25.280Z,0.50
2022-11-10T01:35:25.349Z,0.50
2022-11-10T01:36:25.339Z,0.40
2022-11-10T01:37:25.274Z,0.50
2022-11-10T01:38:25.289Z,0.40
2022-11-10T01:39:25.316Z,0.40
2022-11-10T01:40:25.297Z,0.30
2022-11-10T01:41:25.297Z,0.50
2022-11-10T01:42:25.257Z,0.40
2022-11-10T01:43:25.282Z,0.30
2022-11-10T01:44:25.164Z,0.30
2022-11-10T01:45:45.885Z,0.50
2022-11-10T01:46:25.210Z,0.40
2022-11-10T01:47:25.256Z,0.50
2022-11-10T01:48:25.116Z,0.40
2022-11-10T01:49:25.153Z,0.30
2022-11-10T01:50:25.123Z,0.50
2022-11-10T01:51:25.075Z,0.40
2022-11-10T01:52:25.081Z,0.40
2022-11-10T01:53:25.143Z,0.40
2022-11-10T01:54:25.043Z,0.30
2022-11-10T01:55:25.041Z,0.50
2022-11-10T01:56:25.068Z,0.50
2022-11-10T01:57:25.051Z,0.30
2022-11-10T01:58:24.968Z,0.30
2022-11-10T01:59:24.961Z,0.40
2022-11-10T02:00:24.930Z,0.40
2022-11-10T02:01:24.976Z,0.30
2022-11-10T02:02:24.889Z,0.40
2022-11-10T02:03:25.191Z,0.50
2022-11-10T02:04:24.914Z,0.40
2022-11-10T02:05:24.882Z,0.40
2022-11-10T02:06:24.909Z,0.40
2022-11-10T02:07:24.935Z,0.40
2022-11-10T02:08:24.875Z,0.40
2022-11-10T02:09:24.808Z,0.40
2022-11-10T02:10:24.891Z,0.30
2022-11-10T02:11:24.786Z,0.30
2022-11-10T02:12:24.820Z,0.40
2022-11-10T02:13:24.914Z,0.40
2022-11-10T02:14:24.807Z,0.40
2022-11-10T02:15:24.754Z,0.30
2022-11-10T02:16:24.727Z,0.40
2022-11-10T02:17:24.724Z,0.20
2022-11-10T02:18:24.726Z,0.40
2022-11-10T02:19:24.766Z,0.40
2022-11-10T02:20:24.687Z,0.40
2022-11-10T02:21:24.738Z,0.40
2022-11-10T02:22:24.693Z,0.30
2022-11-10T02:23:24.702Z,0.20
2022-11-10T02:24:24.706Z,0.50
2022-11-10T02:25:24.692Z,0.30
2022-11-10T02:26:24.676Z,0.50
2022-11-10T02:27:24.673Z,0.30
2022-11-10T02:28:24.639Z,0.40
2022-11-10T02:29:24.602Z,0.30
2022-11-10T02:30:27.667Z,0.30
2022-11-10T02:31:24.641Z,0.30
2022-11-10T02:32:24.558Z,0.30
2022-11-10T02:33:24.782Z,0.30
2022-11-10T02:34:24.555Z,0.30
2022-11-10T02:35:24.573Z,0.30
2022-11-10T02:36:24.513Z,0.30
2022-11-10T02:37:24.560Z,0.40
2022-11-10T02:38:24.446Z,0.30
2022-11-10T02:39:24.421Z,0.30
2022-11-10T02:40:24.452Z,0.20
2022-11-10T02:41:24.457Z,0.40
2022-11-10T02:42:24.442Z,0.30
2022-11-10T02:43:24.760Z,0.40
2022-11-10T02:44:24.379Z,0.40
2022-11-10T02:45:24.391Z,0.30
2022-11-10T02:46:24.414Z,0.30
2022-11-10T02:47:24.352Z,0.30
2022-11-10T02:48:24.380Z,0.30
2022-11-10T02:49:24.359Z,0.20
2022-11-10T02:50:24.369Z,0.20
2022-11-10T02:51:24.347Z,0.40
2022-11-10T02:52:24.344Z,0.30
2022-11-10T02:53:24.650Z,0.30
2022-11-10T02:54:24.244Z,0.40
2022-11-10T02:55:24.235Z,0.20
2022-11-10T02:56:24.261Z,0.30
2022-11-10T02:57:24.296Z,0.30
2022-11-10T02:58:24.198Z,0.30
2022-11-10T02:59:24.294Z,0.20
2022-11-10T03:00:30.752Z,0.30
2022-11-10T03:01:24.204Z,0.40
2022-11-10T03:02:28.512Z,0.60
2022-11-10T03:03:24.470Z,0.50
2022-11-10T03:04:24.135Z,0.40
2022-11-10T03:05:24.083Z,0.30
2022-11-10T03:06:24.098Z,0.40
2022-11-10T03:07:24.052Z,0.60
2022-11-10T03:08:24.045Z,0.50
2022-11-10T03:09:24.036Z,0.60
2022-11-10T03:10:24.010Z,0.50
2022-11-10T03:11:28.007Z,0.70
2022-11-10T03:12:23.991Z,0.60
2022-11-10T03:13:24.344Z,0.50
2022-11-10T03:14:23.974Z,0.60
2022-11-10T03:15:23.949Z,0.50
2022-11-10T03:16:23.933Z,0.50
2022-11-10T03:17:23.930Z,0.60
2022-11-10T03:18:23.925Z,0.60
2022-11-10T03:19:23.950Z,0.60
2022-11-10T03:20:23.909Z,0.70
2022-11-10T03:21:23.877Z,0.70
2022-11-10T03:22:23.859Z,0.60
2022-11-10T03:23:24.146Z,0.60
2022-11-10T03:24:23.848Z,0.60
2022-11-10T03:25:23.826Z,0.90
2022-11-10T03:26:23.818Z,0.60
2022-11-10T03:27:23.800Z,0.60
2022-11-10T03:28:23.794Z,0.70
2022-11-10T03:29:23.782Z,0.60
2022-11-10T03:30:23.802Z,0.90
2022-11-10T03:31:23.747Z,0.60
2022-11-10T03:32:23.728Z,0.80
2022-11-10T03:33:24.116Z,0.60
2022-11-10T03:34:26.971Z,0.70
2022-11-10T03:35:23.722Z,0.70
2022-11-10T03:36:23.683Z,0.70
2022-11-10T03:37:23.683Z,0.60
2022-11-10T03:38:23.656Z,0.70
2022-11-10T03:39:23.664Z,0.90
2022-11-10T03:40:23.626Z,0.60
2022-11-10T03:41:23.626Z,0.80
2022-11-10T03:42:23.599Z,0.90
2022-11-10T03:43:23.963Z,0.80
2022-11-10T03:44:23.570Z,0.90
2022-11-10T03:45:23.578Z,0.60
2022-11-10T03:46:23.568Z,0.60
2022-11-10T03:47:23.580Z,0.60
2022-11-10T03:48:23.524Z,0.60
2022-11-10T03:49:23.524Z,0.50
2022-11-10T03:50:23.498Z,0.70
2022-11-10T03:51:23.507Z,0.60
2022-11-10T03:52:23.507Z,0.60
2022-11-10T03:53:23.786Z,0.60
2022-11-10T03:54:23.490Z,0.60
2022-11-10T03:55:23.468Z,0.70
2022-11-10T03:56:23.430Z,0.80
2022-11-10T03:57:23.463Z,0.70
2022-11-10T03:58:23.406Z,0.60
2022-11-10T03:59:23.392Z,0.90
2022-11-10T04:00:23.377Z,0.60
2022-11-10T04:01:23.435Z,0.70
2022-11-10T04:02:23.366Z,0.80
2022-11-10T04:03:23.724Z,0.60
2022-11-10T04:04:23.331Z,1.00
2022-11-10T04:05:23.335Z,0.80
2022-11-10T04:06:23.315Z,0.60
2022-11-10T04:07:23.286Z,0.80
2022-11-10T04:08:23.275Z,0.80
2022-11-10T04:09:23.273Z,1.10
2022-11-10T04:10:23.247Z,0.90
2022-11-10T04:11:23.272Z,0.90
2022-11-10T04:12:25.041Z,0.90
2022-11-10T04:13:23.715Z,0.80
2022-11-10T04:14:23.251Z,0.70
2022-11-10T04:15:23.221Z,0.90
2022-11-10T04:16:23.210Z,0.80
2022-11-10T04:17:23.206Z,0.80
2022-11-10T04:18:23.165Z,0.90
2022-11-10T04:19:23.159Z,1.00
2022-11-10T04:20:23.127Z,0.90
2022-11-10T04:21:23.122Z,0.90
2022-11-10T04:22:23.130Z,0.60
2022-11-10T04:23:23.480Z,0.70
2022-11-10T04:24:23.108Z,0.70
2022-11-10T04:25:23.078Z,0.80
2022-11-10T04:26:23.062Z,0.90
2022-11-10T04:27:23.041Z,0.90
2022-11-10T04:28:23.044Z,0.90
2022-11-10T04:29:23.034Z,0.90
2022-11-10T04:30:23.005Z,1.00
2022-11-10T04:31:22.991Z,1.20
2022-11-10T04:32:23.052Z,1.20
2022-11-10T04:33:23.269Z,1.10
2022-11-10T04:34:22.962Z,0.80
2022-11-10T04:35:22.963Z,0.90
2022-11-10T04:36:22.934Z,0.80
2022-11-10T04:37:22.948Z,1.00
2022-11-10T04:38:22.915Z,0.80
2022-11-10T04:39:22.925Z,1.10
2022-11-10T04:40:22.878Z,0.90
2022-11-10T04:41:22.868Z,1.10
2022-11-10T04:42:22.857Z,1.30
2022-11-10T04:43:23.273Z,2.00
2022-11-10T04:44:22.860Z,1.30
2022-11-10T04:45:22.828Z,1.80
2022-11-10T04:46:22.818Z,1.20
2022-11-10T04:47:22.793Z,1.50
2022-11-10T04:48:22.827Z,1.30
2022-11-10T04:49:22.795Z,1.30
2022-11-10T04:50:22.783Z,1.20
2022-11-10T04:51:22.781Z,1.30
2022-11-10T04:52:22.729Z,1.30
2022-11-10T04:53:23.342Z,1.00
2022-11-10T04:54:22.720Z,1.40
2022-11-10T04:55:22.686Z,0.90
2022-11-10T04:56:22.728Z,1.20
2022-11-10T04:57:22.666Z,1.30
2022-11-10T04:58:22.652Z,1.30
2022-11-10T04:59:22.642Z,1.40
2022-11-10T05:00:22.659Z,1.30
2022-11-10T05:01:22.737Z,1.00
2022-11-10T05:02:22.612Z,1.10
2022-11-10T05:03:22.938Z,1.40
2022-11-10T05:04:22.661Z,1.20
2022-11-10T05:05:22.568Z,1.10
2022-11-10T05:06:22.575Z,1.10
2022-11-10T05:07:22.572Z,1.10
2022-11-10T05:08:22.559Z,1.30
2022-11-10T05:09:22.511Z,1.00
2022-11-10T05:10:22.498Z,1.20
2022-11-10T05:11:22.579Z,1.00
2022-11-10T05:12:22.631Z,0.90
2022-11-10T05:13:22.797Z,0.90
2022-11-10T05:14:22.485Z,1.20
2022-11-10T05:15:22.434Z,1.00
2022-11-10T05:16:22.418Z,1.00
2022-11-10T05:17:22.408Z,1.30
2022-11-10T05:18:22.396Z,0.90
2022-11-10T05:19:22.375Z,1.10
2022-11-10T05:20:22.368Z,1.00
2022-11-10T05:21:22.403Z,1.20
2022-11-10T05:22:22.353Z,1.00
2022-11-10T05:23:22.689Z,1.30
2022-11-10T05:24:22.371Z,1.40
2022-11-10T05:25:22.293Z,1.30
2022-11-10T05:26:22.288Z,1.40
2022-11-10T05:27:22.268Z,1.10
2022-11-10T05:28:22.255Z,1.10
2022-11-10T05:29:22.246Z,1.10
2022-11-10T05:30:22.243Z,1.30
2022-11-10T05:31:22.210Z,1.10
2022-11-10T05:32:22.203Z,1.10
2022-11-10T05:33:22.687Z,1.60
2022-11-10T05:34:22.220Z,1.30
2022-11-10T05:35:22.163Z,2.00
2022-11-10T05:36:22.177Z,2.10
2022-11-10T05:37:22.156Z,1.80
2022-11-10T05:38:22.149Z,2.40
2022-11-10T05:39:22.135Z,2.00
2022-11-10T05:40:22.123Z,1.30
2022-11-10T05:41:22.104Z,1.40
2022-11-10T05:42:22.069Z,1.40
2022-11-10T05:43:22.456Z,1.30
2022-11-10T05:44:22.045Z,1.30
2022-11-10T05:45:22.038Z,1.20
2022-11-10T05:46:22.045Z,1.40
2022-11-10T05:47:22.005Z,1.20
2022-11-10T05:48:22.008Z,1.40
2022-11-10T05:49:21.995Z,1.30
2022-11-10T05:50:21.972Z,1.40
2022-11-10T05:51:21.991Z,1.60
2022-11-10T05:52:21.949Z,1.60
2022-11-10T05:53:22.293Z,1.30
2022-11-10T05:54:21.950Z,1.60
2022-11-10T05:55:21.909Z,1.40
2022-11-10T05:56:21.965Z,1.40
2022-11-10T05:57:21.883Z,1.20
2022-11-10T05:58:21.899Z,1.20
2022-11-10T05:59:21.868Z,1.00
2022-11-10T06:00:21.866Z,1.30
2022-11-10T06:01:21.859Z,1.80
2022-11-10T06:02:21.849Z,1.40
2022-11-10T06:03:22.280Z,1.50
2022-11-10T06:04:21.865Z,1.30
2022-11-10T06:05:24.576Z,1.30
2022-11-10T06:06:21.782Z,1.50
2022-11-10T06:07:21.757Z,1.30
2022-11-10T06:08:21.775Z,1.40
2022-11-10T06:09:21.734Z,1.60
2022-11-10T06:10:21.723Z,1.50
2022-11-10T06:11:21.714Z,1.70
2022-11-10T06:12:21.699Z,1.60
2022-11-10T06:13:22.190Z,1.80
2022-11-10T06:14:21.698Z,1.60
2022-11-10T06:15:21.657Z,1.90
2022-11-10T06:16:21.659Z,1.50
2022-11-10T06:17:21.663Z,1.70
2022-11-10T06:18:21.622Z,1.60
2022-11-10T06:19:21.603Z,1.50
2022-11-10T06:20:21.605Z,1.30
2022-11-10T06:21:21.604Z,1.30
2022-11-10T06:22:21.590Z,1.50
2022-11-10T06:23:22.033Z,1.20
2022-11-10T06:24:21.557Z,1.50
2022-11-10T06:25:21.573Z,1.60
2022-11-10T06:26:21.532Z,2.50
2022-11-10T06:27:21.512Z,1.30
2022-11-10T06:28:21.529Z,1.70
2022-11-10T06:29:26.483Z,1.80
2022-11-10T06:30:21.484Z,1.70
2022-11-10T06:31:21.464Z,1.60
2022-11-10T06:32:21.447Z,1.60
2022-11-10T06:33:21.890Z,1.50
2022-11-10T06:34:21.584Z,1.60
2022-11-10T06:35:21.416Z,1.40
2022-11-10T06:36:21.410Z,1.80
2022-11-10T06:37:21.402Z,1.80
2022-11-10T06:38:21.382Z,1.10
2022-11-10T06:39:21.359Z,1.40
2022-11-10T06:40:21.371Z,1.30
2022-11-10T06:41:25.328Z,1.00
2022-11-10T06:42:21.351Z,1.00
2022-11-10T06:43:21.829Z,1.60
2022-11-10T06:44:21.390Z,1.10
2022-11-10T06:45:21.284Z,1.50
2022-11-10T06:46:21.287Z,1.50
2022-11-10T06:47:21.282Z,1.20
2022-11-10T06:48:21.251Z,1.70
2022-11-10T06:49:21.248Z,1.30
2022-11-10T06:50:21.237Z,1.30
2022-11-10T06:51:21.235Z,1.20
2022-11-10T06:52:21.201Z,1.40
2022-11-10T06:53:26.680Z,1.20
2022-11-10T06:54:21.223Z,1.50
2022-11-10T06:55:21.162Z,1.40
2022-11-10T06:56:21.152Z,1.40
2022-11-10T06:57:21.162Z,1.50
2022-11-10T06:58:21.136Z,1.40
2022-11-10T06:59:21.114Z,1.80
2022-11-10T07:00:21.116Z,1.50
2022-11-10T07:01:22.644Z,1.70
2022-11-10T07:02:21.078Z,1.60
2022-11-10T07:03:21.447Z,1.70
2022-11-10T07:04:21.327Z,1.80
2022-11-10T07:05:21.037Z,1.80
2022-11-10T07:06:21.037Z,1.50
2022-11-10T07:07:21.035Z,1.50
2022-11-10T07:08:21.046Z,1.60
2022-11-10T07:09:21.013Z,1.80
2022-11-10T07:10:21.038Z,2.10
2022-11-10T07:11:20.975Z,1.40
2022-11-10T07:12:20.957Z,1.70
2022-11-10T07:13:21.304Z,1.90
2022-11-10T07:14:20.959Z,1.70
2022-11-10T07:15:20.915Z,1.60
2022-11-10T07:16:24.421Z,1.70
2022-11-10T07:17:20.911Z,1.50
2022-11-10T07:18:20.915Z,1.80
2022-11-10T07:19:20.878Z,1.90
2022-11-10T07:20:20.870Z,1.90
2022-11-10T07:21:20.855Z,1.70
2022-11-10T07:22:20.837Z,1.60
2022-11-10T07:23:21.147Z,2.00
2022-11-10T07:24:20.829Z,1.70
2022-11-10T07:25:20.808Z,1.50
2022-11-10T07:26:20.809Z,1.70
2022-11-10T07:27:20.803Z,2.10
2022-11-10T07:28:24.633Z,1.80
2022-11-10T07:29:20.753Z,1.60
2022-11-10T07:30:20.733Z,2.20
2022-11-10T07:31:20.719Z,1.80
2022-11-10T07:32:20.711Z,1.90
2022-11-10T07:33:21.292Z,1.80
2022-11-10T07:34:20.689Z,1.80
2022-11-10T07:35:20.687Z,2.00
2022-11-10T07:36:20.676Z,1.60
2022-11-10T07:37:20.645Z,1.60
2022-11-10T07:38:20.639Z,2.00
2022-11-10T07:39:20.629Z,2.30
2022-11-10T07:40:20.640Z,2.10
2022-11-10T07:41:20.602Z,1.90
2022-11-10T07:42:20.616Z,2.30
2022-11-10T07:43:21.048Z,2.30
2022-11-10T07:44:20.558Z,1.90
2022-11-10T07:45:20.549Z,1.80
2022-11-10T07:46:20.539Z,1.90
2022-11-10T07:47:20.525Z,2.20
2022-11-10T07:48:20.519Z,1.70
2022-11-10T07:49:20.502Z,1.90
2022-11-10T07:50:20.485Z,1.90
2022-11-10T07:51:20.480Z,2.00
2022-11-10T07:52:20.464Z,1.70
2022-11-10T07:53:20.876Z,1.60
2022-11-10T07:54:20.452Z,1.90
2022-11-10T07:55:20.421Z,1.80
2022-11-10T07:56:20.409Z,2.10
2022-11-10T07:57:20.394Z,2.10
2022-11-10T07:58:20.427Z,2.30
2022-11-10T07:59:20.368Z,2.00
2022-11-10T08:00:20.372Z,2.00
2022-11-10T08:01:20.415Z,1.90
2022-11-10T08:02:20.357Z,2.10
2022-11-10T08:03:20.656Z,1.90
2022-11-10T08:04:20.323Z,2.20
2022-11-10T08:05:20.294Z,1.90
2022-11-10T08:06:20.328Z,2.10
2022-11-10T08:07:20.461Z,2.10
2022-11-10T08:08:20.270Z,2.20
2022-11-10T08:09:20.273Z,2.20
2022-11-10T08:10:20.244Z,2.30
2022-11-10T08:11:20.240Z,2.00
2022-11-10T08:12:20.209Z,2.30
2022-11-10T08:13:20.649Z,2.40
2022-11-10T08:14:20.195Z,2.20
2022-11-10T08:15:20.168Z,1.90
2022-11-10T08:16:20.171Z,2.00
2022-11-10T08:17:20.171Z,2.00
2022-11-10T08:18:20.177Z,1.80
2022-11-10T08:19:20.130Z,2.00
2022-11-10T08:20:20.116Z,2.10
2022-11-10T08:21:20.102Z,2.10
2022-11-10T08:22:20.090Z,2.00
2022-11-10T08:23:20.515Z,1.70
2022-11-10T08:24:20.070Z,1.60
2022-11-10T08:25:20.049Z,1.90
2022-11-10T08:26:20.050Z,1.70
2022-11-10T08:27:20.030Z,1.70
2022-11-10T08:28:20.019Z,2.00
2022-11-10T08:29:20.017Z,1.60
2022-11-10T08:30:19.991Z,1.90
2022-11-10T08:31:19.988Z,1.90
2022-11-10T08:32:19.979Z,1.60
2022-11-10T08:33:20.288Z,1.80
2022-11-10T08:34:19.936Z,1.50
2022-11-10T08:35:19.934Z,2.00
2022-11-10T08:36:19.952Z,1.50
2022-11-10T08:37:19.907Z,1.70
2022-11-10T08:38:19.891Z,1.60
2022-11-10T08:39:37.684Z,1.50
2022-11-10T08:40:19.876Z,1.80
2022-11-10T08:41:19.859Z,1.90
2022-11-10T08:42:19.832Z,1.60
2022-11-10T08:43:20.265Z,1.50
2022-11-10T08:44:21.030Z,1.40
2022-11-10T08:45:19.793Z,1.50
2022-11-10T08:46:19.779Z,1.40
2022-11-10T08:47:19.840Z,1.30
2022-11-10T08:48:19.760Z,1.10
2022-11-10T08:49:19.784Z,1.00
2022-11-10T08:50:19.726Z,1.20
2022-11-10T08:51:19.719Z,1.50
2022-11-10T08:52:19.698Z,1.70
2022-11-10T08:53:20.005Z,1.30
2022-11-10T08:54:19.682Z,1.50
2022-11-10T08:55:19.657Z,1.20
2022-11-10T08:56:19.638Z,1.40
2022-11-10T08:57:19.656Z,1.50
2022-11-10T08:58:19.650Z,1.50
2022-11-10T08:59:19.611Z,1.30
2022-11-10T09:00:19.591Z,1.40
2022-11-10T09:01:19.579Z,1.60
2022-11-10T09:02:19.574Z,1.60
2022-11-10T09:03:19.724Z,1.60
2022-11-10T09:04:19.605Z,1.30
2022-11-10T09:05:19.545Z,1.40
2022-11-10T09:06:19.516Z,1.80
2022-11-10T09:07:19.499Z,1.40
2022-11-10T09:08:19.478Z,1.50
2022-11-10T09:09:19.486Z,1.60
2022-11-10T09:10:19.516Z,1.50
2022-11-10T09:11:19.438Z,1.10
2022-11-10T09:12:19.419Z,1.00
2022-11-10T09:13:22.426Z,1.10
2022-11-10T09:14:19.431Z,1.20
2022-11-10T09:15:19.413Z,1.00
2022-11-10T09:16:19.373Z,1.20
2022-11-10T09:17:19.363Z,1.20
2022-11-10T09:18:19.396Z,1.00
2022-11-10T09:19:20.172Z,1.00
2022-11-10T09:20:19.328Z,1.00
2022-11-10T09:21:19.315Z,1.10
2022-11-10T09:22:19.308Z,1.30
2022-11-10T09:23:19.580Z,1.20
2022-11-10T09:24:19.277Z,1.50
2022-11-10T09:25:19.256Z,1.10
2022-11-10T09:26:19.289Z,1.20
2022-11-10T09:27:19.238Z,1.00
2022-11-10T09:28:19.234Z,1.50
2022-11-10T09:29:19.211Z,1.50
2022-11-10T09:30:19.193Z,0.90
2022-11-10T09:31:19.237Z,0.90
2022-11-10T09:32:19.168Z,1.00
2022-11-10T09:33:19.349Z,1.40
2022-11-10T09:34:19.145Z,1.00
2022-11-10T09:35:19.124Z,0.90
2022-11-10T09:36:19.136Z,0.90
2022-11-10T09:37:19.100Z,0.70
2022-11-10T09:38:19.312Z,0.80
2022-11-10T09:39:19.069Z,1.20
2022-11-10T09:40:19.083Z,1.10
2022-11-10T09:41:26.686Z,1.10
2022-11-10T09:42:19.073Z,1.00
2022-11-10T09:43:19.311Z,1.20
2022-11-10T09:44:19.092Z,1.20
2022-11-10T09:45:18.996Z,1.10
2022-11-10T09:46:18.998Z,1.20
2022-11-10T09:47:42.516Z,0.90
2022-11-10T09:48:19.224Z,1.10
2022-11-10T09:49:18.975Z,1.20
2022-11-10T09:50:18.927Z,1.00
2022-11-10T09:51:18.924Z,0.90
2022-11-10T09:52:18.924Z,1.00
2022-11-10T09:53:18.892Z,1.10
2022-11-10T09:54:18.907Z,1.10
2022-11-10T09:55:18.875Z,0.90
2022-11-10T09:56:18.986Z,1.20
2022-11-10T09:57:18.903Z,0.90
2022-11-10T09:58:19.089Z,1.10
2022-11-10T09:59:18.827Z,0.90
2022-11-10T10:00:18.805Z,0.70
2022-11-10T10:01:18.970Z,1.20
2022-11-10T10:02:18.765Z,0.90
2022-11-10T10:03:18.798Z,0.70
2022-11-10T10:04:18.745Z,0.90
2022-11-10T10:05:18.765Z,1.00
2022-11-10T10:06:18.712Z,1.00
2022-11-10T10:07:18.724Z,0.90
2022-11-10T10:08:18.803Z,1.10
2022-11-10T10:09:18.673Z,1.00
2022-11-10T10:10:18.682Z,1.10
2022-11-10T10:11:18.839Z,1.20
2022-11-10T10:12:18.645Z,1.20
2022-11-10T10:13:18.704Z,1.20
2022-11-10T10:14:18.707Z,1.10
2022-11-10T10:15:18.631Z,1.20
2022-11-10T10:16:18.601Z,1.00
2022-11-10T10:17:18.588Z,1.80
2022-11-10T10:18:18.569Z,1.20
2022-11-10T10:19:18.586Z,1.90
2022-11-10T10:20:18.537Z,1.30
2022-11-10T10:21:18.519Z,1.50
2022-11-10T10:22:18.531Z,1.20
2022-11-10T10:23:18.493Z,1.10
2022-11-10T10:24:22.123Z,1.30
2022-11-10T10:25:18.602Z,1.40
2022-11-10T10:26:18.456Z,1.30
2022-11-10T10:27:18.446Z,1.30
2022-11-10T10:28:18.429Z,1.50
2022-11-10T10:29:18.416Z,1.10
2022-11-10T10:30:18.430Z,1.40
2022-11-10T10:31:18.409Z,1.30
2022-11-10T10:32:18.374Z,1.20
2022-11-10T10:33:18.384Z,1.60
2022-11-10T10:34:18.347Z,1.50
2022-11-10T10:35:18.346Z,1.00
2022-11-10T10:36:18.524Z,0.80
2022-11-10T10:37:18.357Z,1.20
2022-11-10T10:38:18.380Z,0.70
2022-11-10T10:39:18.304Z,1.10
2022-11-10T10:40:18.340Z,0.70
2022-11-10T10:41:23.411Z,1.00
2022-11-10T10:42:18.263Z,0.90
2022-11-10T10:43:18.253Z,0.70
2022-11-10T10:44:18.243Z,1.40
2022-11-10T10:45:18.357Z,1.10
2022-11-10T10:46:18.206Z,1.00
2022-11-10T10:47:18.189Z,1.20
2022-11-10T10:48:18.264Z,1.00
2022-11-10T10:49:33.464Z,1.00
2022-11-10T10:50:18.249Z,0.80
2022-11-10T10:51:18.138Z,0.80
2022-11-10T10:52:18.110Z,1.00
2022-11-10T10:53:18.146Z,1.10
2022-11-10T10:54:18.086Z,0.90
2022-11-10T10:55:18.083Z,0.80
2022-11-10T10:56:18.055Z,0.80
2022-11-10T10:57:18.043Z,1.00
2022-11-10T10:58:18.027Z,1.10
2022-11-10T10:59:18.032Z,0.80
2022-11-10T11:00:18.052Z,0.90
2022-11-10T11:01:18.113Z,0.90
2022-11-10T11:02:17.973Z,0.80
2022-11-10T11:03:17.979Z,0.90
2022-11-10T11:04:17.952Z,1.20
2022-11-10T11:05:17.937Z,1.10
2022-11-10T11:06:17.970Z,0.80
2022-11-10T11:07:17.964Z,0.70
2022-11-10T11:08:17.915Z,0.70
2022-11-10T11:09:17.907Z,0.60
2022-11-10T11:10:17.883Z,0.90
2022-11-10T11:11:17.858Z,1.00
2022-11-10T11:12:17.848Z,1.00
2022-11-10T11:13:17.834Z,0.80
2022-11-10T11:14:17.824Z,1.00
2022-11-10T11:15:17.809Z,1.20
2022-11-10T11:16:17.822Z,0.70
2022-11-10T11:17:17.854Z,0.80
2022-11-10T11:18:17.783Z,1.00
2022-11-10T11:19:17.775Z,0.90
2022-11-10T11:20:17.739Z,1.10
2022-11-10T11:21:17.732Z,0.90
2022-11-10T11:22:17.716Z,0.80
2022-11-10T11:23:17.720Z,0.80
2022-11-10T11:24:17.687Z,0.80
2022-11-10T11:25:17.681Z,1.10
2022-11-10T11:26:17.661Z,0.60
2022-11-10T11:27:17.654Z,0.70
2022-11-10T11:28:17.659Z,0.40
2022-11-10T11:29:17.663Z,1.00
2022-11-10T11:30:17.622Z,0.60
2022-11-10T11:31:17.653Z,0.60
2022-11-10T11:32:17.585Z,0.90
2022-11-10T11:33:17.588Z,0.80
2022-11-10T11:34:17.574Z,0.40
2022-11-10T11:35:17.552Z,0.50
2022-11-10T11:36:17.546Z,0.60
2022-11-10T11:37:19.681Z,0.70
2022-11-10T11:38:17.502Z,0.60
2022-11-10T11:39:17.508Z,0.50
2022-11-10T11:40:17.586Z,0.70
2022-11-10T11:41:17.476Z,0.70
2022-11-10T11:42:17.474Z,0.60
2022-11-10T11:43:17.457Z,0.50
2022-11-10T11:44:17.417Z,0.70
2022-11-10T11:45:17.405Z,0.70
2022-11-10T11:46:17.389Z,0.80
2022-11-10T11:47:17.389Z,0.70
2022-11-10T11:48:17.379Z,0.70
2022-11-10T11:49:17.352Z,1.00
2022-11-10T11:50:17.339Z,1.00
2022-11-10T11:51:17.324Z,0.90
2022-11-10T11:52:17.312Z,1.00
2022-11-10T11:53:17.310Z,0.70
2022-11-10T11:54:17.277Z,0.90
2022-11-10T11:55:17.278Z,0.80
2022-11-10T11:56:17.267Z,0.70
2022-11-10T11:57:17.253Z,0.90
2022-11-10T11:58:17.233Z,1.00
2022-11-10T11:59:17.216Z,0.90
2022-11-10T12:00:17.200Z,0.80
2022-11-10T12:01:17.215Z,0.70
2022-11-10T12:02:17.306Z,0.80
2022-11-10T12:03:17.180Z,0.80
2022-11-10T12:04:17.153Z,1.00
2022-11-10T12:05:17.149Z,1.00
2022-11-10T12:06:17.121Z,0.80
2022-11-10T12:07:17.265Z,0.80
2022-11-10T12:08:17.133Z,0.90
2022-11-10T12:09:17.086Z,0.70
2022-11-10T12:10:17.091Z,0.80
2022-11-10T12:11:17.055Z,0.80
2022-11-10T12:12:17.065Z,1.00
2022-11-10T12:13:17.040Z,0.70
2022-11-10T12:14:17.058Z,0.80
2022-11-10T12:15:16.999Z,1.00
2022-11-10T12:16:16.982Z,0.60
2022-11-10T12:17:16.983Z,1.20
2022-11-10T12:18:16.954Z,0.80
2022-11-10T12:19:16.965Z,0.70
2022-11-10T12:20:16.950Z,1.00
2022-11-10T12:21:16.926Z,1.00
2022-11-10T12:22:16.898Z,1.00
2022-11-10T12:23:16.905Z,0.90
2022-11-10T12:24:16.874Z,0.60
2022-11-10T12:25:16.889Z,0.50
2022-11-10T12:26:16.849Z,0.60
2022-11-10T12:27:16.839Z,0.90
2022-11-10T12:28:16.822Z,1.30
2022-11-10T12:29:16.832Z,0.60
2022-11-10T12:30:16.813Z,0.50
2022-11-10T12:31:16.790Z,0.60
2022-11-10T12:32:16.782Z,0.50
2022-11-10T12:33:16.780Z,0.60
2022-11-10T12:34:16.729Z,0.70
2022-11-10T12:35:16.746Z,0.80
2022-11-10T12:36:16.721Z,0.70
2022-11-10T12:37:16.703Z,0.60
2022-11-10T12:38:16.673Z,0.70
2022-11-10T12:39:16.671Z,1.00
2022-11-10T12:40:16.644Z,0.40
2022-11-10T12:41:16.640Z,0.60
2022-11-10T12:42:16.622Z,0.60
2022-11-10T12:43:16.628Z,0.50
2022-11-10T12:44:16.607Z,0.60
2022-11-10T12:45:16.590Z,0.50
2022-11-10T12:46:16.586Z,0.30
2022-11-10T12:47:16.580Z,0.60
2022-11-10T12:48:16.546Z,0.90
2022-11-10T12:49:16.553Z,1.30
2022-11-10T12:50:16.551Z,1.00
2022-11-10T12:51:16.520Z,0.70
2022-11-10T12:52:16.531Z,0.70
2022-11-10T12:53:16.474Z,0.90
2022-11-10T12:54:17.113Z,0.60
2022-11-10T12:55:16.446Z,0.90
2022-11-10T12:56:16.457Z,0.60
2022-11-10T12:57:16.424Z,0.60
2022-11-10T12:58:16.412Z,0.50
2022-11-10T12:59:16.402Z,0.80
2022-11-10T13:00:19.431Z,0.80
2022-11-10T13:01:16.423Z,0.60
2022-11-10T13:02:16.358Z,0.50
2022-11-10T13:03:16.344Z,0.60
2022-11-10T13:04:16.345Z,0.60
2022-11-10T13:05:16.343Z,0.70
2022-11-10T13:06:16.327Z,0.40
2022-11-10T13:07:16.298Z,0.70
2022-11-10T13:08:16.273Z,0.80
2022-11-10T13:09:16.263Z,0.80
2022-11-10T13:10:16.244Z,0.60
2022-11-10T13:11:16.279Z,0.70
2022-11-10T13:12:16.229Z,0.50
2022-11-10T13:13:16.215Z,0.70
2022-11-10T13:14:16.196Z,0.80
2022-11-10T13:15:16.171Z,0.80
2022-11-10T13:16:16.179Z,0.70
2022-11-10T13:17:16.151Z,0.70
2022-11-10T13:18:16.146Z,0.60